sensor_id;sensor_type;location;lat;lon;timestamp;P1;durP1;ratioP1;P2;durP2;ratioP2
10641;SDS011;5369;49.586;8.646;2023-08-12T00:00:19;4.20;;;3.80;;
10641;SDS011;5369;49.586;8.646;2023-08-12T00:02:46;5.17;;;3.73;;
10641;SDS011;5369;49.586;8.646;2023-08-12T00:05:12;4.10;;;3.80;;
10641;SDS011;5369;49.586;8.646;2023-08-12T00:07:39;4.70;;;3.90;;
10641;SDS011;5369;49.586;8.646;2023-08-12T00:10:10;4.93;;;3.90;;
10641;SDS011;5369;49.586;8.646;2023-08-12T00:12:36;4.80;;;3.80;;
10641;SDS011;5369;49.586;8.646;2023-08-12T00:15:03;4.57;;;4.10;;
10641;SDS011;5369;49.586;8.646;2023-08-12T00:17:32;4.97;;;3.93;;
10641;SDS011;5369;49.586;8.646;2023-08-12T00:19:58;5.47;;;3.47;;
10641;SDS011;5369;49.586;8.646;2023-08-12T00:22:25;5.20;;;3.93;;
10641;SDS011;5369;49.586;8.646;2023-08-12T00:24:51;4.07;;;3.67;;
10641;SDS011;5369;49.586;8.646;2023-08-12T00:27:18;4.53;;;3.83;;
10641;SDS011;5369;49.586;8.646;2023-08-12T00:29:44;4.37;;;3.80;;
10641;SDS011;5369;49.586;8.646;2023-08-12T00:32:10;4.43;;;4.03;;
10641;SDS011;5369;49.586;8.646;2023-08-12T00:34:36;4.70;;;3.90;;
10641;SDS011;5369;49.586;8.646;2023-08-12T00:37:03;3.90;;;3.50;;
10641;SDS011;5369;49.586;8.646;2023-08-12T00:39:30;5.60;;;3.40;;
10641;SDS011;5369;49.586;8.646;2023-08-12T00:41:56;4.77;;;3.60;;
10641;SDS011;5369;49.586;8.646;2023-08-12T00:44:22;4.03;;;3.63;;
10641;SDS011;5369;49.586;8.646;2023-08-12T00:46:48;4.90;;;4.00;;
10641;SDS011;5369;49.586;8.646;2023-08-12T00:49:15;4.37;;;3.50;;
10641;SDS011;5369;49.586;8.646;2023-08-12T00:51:42;5.93;;;3.87;;
10641;SDS011;5369;49.586;8.646;2023-08-12T00:54:12;4.60;;;3.60;;
10641;SDS011;5369;49.586;8.646;2023-08-12T00:56:39;5.83;;;4.20;;
10641;SDS011;5369;49.586;8.646;2023-08-12T00:59:05;5.57;;;3.40;;
10641;SDS011;5369;49.586;8.646;2023-08-12T01:01:33;4.43;;;4.03;;
10641;SDS011;5369;49.586;8.646;2023-08-12T01:03:59;4.00;;;3.53;;
10641;SDS011;5369;49.586;8.646;2023-08-12T01:06:25;3.83;;;3.53;;
10641;SDS011;5369;49.586;8.646;2023-08-12T01:08:52;4.77;;;3.90;;
10641;SDS011;5369;49.586;8.646;2023-08-12T01:11:26;3.93;;;3.63;;
10641;SDS011;5369;49.586;8.646;2023-08-12T01:16:26;5.77;;;4.10;;
10641;SDS011;5369;49.586;8.646;2023-08-12T01:18:54;4.27;;;3.80;;
10641;SDS011;5369;49.586;8.646;2023-08-12T01:21:21;4.20;;;3.80;;
10641;SDS011;5369;49.586;8.646;2023-08-12T01:23:50;4.87;;;4.20;;
10641;SDS011;5369;49.586;8.646;2023-08-12T01:26:16;4.20;;;3.80;;
10641;SDS011;5369;49.586;8.646;2023-08-12T01:28:42;5.47;;;3.77;;
10641;SDS011;5369;49.586;8.646;2023-08-12T01:31:11;4.87;;;4.37;;
10641;SDS011;5369;49.586;8.646;2023-08-12T01:33:46;4.70;;;3.90;;
10641;SDS011;5369;49.586;8.646;2023-08-12T01:36:16;4.50;;;4.10;;
10641;SDS011;5369;49.586;8.646;2023-08-12T01:38:42;7.17;;;4.47;;
10641;SDS011;5369;49.586;8.646;2023-08-12T01:41:09;4.93;;;4.43;;
10641;SDS011;5369;49.586;8.646;2023-08-12T01:43:37;6.10;;;4.73;;
10641;SDS011;5369;49.586;8.646;2023-08-12T01:46:04;5.83;;;4.43;;
10641;SDS011;5369;49.586;8.646;2023-08-12T01:48:30;4.83;;;4.43;;
10641;SDS011;5369;49.586;8.646;2023-08-12T01:50:56;7.53;;;4.60;;
10641;SDS011;5369;49.586;8.646;2023-08-12T01:53:22;4.87;;;4.47;;
10641;SDS011;5369;49.586;8.646;2023-08-12T01:55:49;5.20;;;4.70;;
10641;SDS011;5369;49.586;8.646;2023-08-12T01:58:16;6.07;;;4.57;;
10641;SDS011;5369;49.586;8.646;2023-08-12T02:00:42;5.17;;;4.67;;
10641;SDS011;5369;49.586;8.646;2023-08-12T02:03:09;5.23;;;4.73;;
10641;SDS011;5369;49.586;8.646;2023-08-12T02:05:35;7.50;;;5.07;;
10641;SDS011;5369;49.586;8.646;2023-08-12T02:08:06;5.10;;;4.60;;
10641;SDS011;5369;49.586;8.646;2023-08-12T02:10:34;6.13;;;4.50;;
10641;SDS011;5369;49.586;8.646;2023-08-12T02:13:00;5.60;;;4.80;;
10641;SDS011;5369;49.586;8.646;2023-08-12T02:15:28;6.67;;;4.47;;
10641;SDS011;5369;49.586;8.646;2023-08-12T02:17:54;4.70;;;4.17;;
10641;SDS011;5369;49.586;8.646;2023-08-12T02:20:20;4.50;;;4.10;;
10641;SDS011;5369;49.586;8.646;2023-08-12T02:22:46;6.37;;;4.40;;
10641;SDS011;5369;49.586;8.646;2023-08-12T02:25:12;5.40;;;4.30;;
10641;SDS011;5369;49.586;8.646;2023-08-12T02:27:39;4.17;;;3.77;;
10641;SDS011;5369;49.586;8.646;2023-08-12T02:30:05;4.07;;;3.77;;
10641;SDS011;5369;49.586;8.646;2023-08-12T02:32:31;5.43;;;4.40;;
10641;SDS011;5369;49.586;8.646;2023-08-12T02:34:57;4.70;;;4.30;;
10641;SDS011;5369;49.586;8.646;2023-08-12T02:37:23;4.70;;;4.03;;
10641;SDS011;5369;49.586;8.646;2023-08-12T02:39:50;5.33;;;4.50;;
10641;SDS011;5369;49.586;8.646;2023-08-12T02:42:16;4.80;;;4.30;;
10641;SDS011;5369;49.586;8.646;2023-08-12T02:44:42;6.00;;;4.07;;
10641;SDS011;5369;49.586;8.646;2023-08-12T02:47:08;4.53;;;4.13;;
10641;SDS011;5369;49.586;8.646;2023-08-12T02:49:34;4.77;;;3.90;;
10641;SDS011;5369;49.586;8.646;2023-08-12T02:52:01;5.13;;;4.37;;
10641;SDS011;5369;49.586;8.646;2023-08-12T02:54:27;5.40;;;3.80;;
10641;SDS011;5369;49.586;8.646;2023-08-12T02:56:54;4.83;;;4.30;;
10641;SDS011;5369;49.586;8.646;2023-08-12T02:59:20;4.77;;;4.27;;
10641;SDS011;5369;49.586;8.646;2023-08-12T03:01:46;4.70;;;4.30;;
10641;SDS011;5369;49.586;8.646;2023-08-12T03:04:12;5.20;;;4.40;;
10641;SDS011;5369;49.586;8.646;2023-08-12T03:06:39;4.97;;;4.47;;
10641;SDS011;5369;49.586;8.646;2023-08-12T03:09:05;5.60;;;5.10;;
10641;SDS011;5369;49.586;8.646;2023-08-12T03:11:32;5.63;;;5.07;;
10641;SDS011;5369;49.586;8.646;2023-08-12T03:13:59;5.00;;;4.50;;
10641;SDS011;5369;49.586;8.646;2023-08-12T03:16:26;6.60;;;4.80;;
10641;SDS011;5369;49.586;8.646;2023-08-12T03:18:52;6.50;;;4.77;;
10641;SDS011;5369;49.586;8.646;2023-08-12T03:21:19;5.67;;;4.80;;
10641;SDS011;5369;49.586;8.646;2023-08-12T03:23:47;6.87;;;5.00;;
10641;SDS011;5369;49.586;8.646;2023-08-12T03:26:13;6.87;;;4.80;;
10641;SDS011;5369;49.586;8.646;2023-08-12T03:28:40;4.80;;;4.40;;
10641;SDS011;5369;49.586;8.646;2023-08-12T03:31:07;4.87;;;4.30;;
10641;SDS011;5369;49.586;8.646;2023-08-12T03:33:34;4.67;;;4.20;;
10641;SDS011;5369;49.586;8.646;2023-08-12T03:36:01;5.10;;;4.37;;
10641;SDS011;5369;49.586;8.646;2023-08-12T03:38:27;4.90;;;4.50;;
10641;SDS011;5369;49.586;8.646;2023-08-12T03:40:54;5.67;;;5.07;;
10641;SDS011;5369;49.586;8.646;2023-08-12T03:43:20;4.80;;;4.30;;
10641;SDS011;5369;49.586;8.646;2023-08-12T03:45:47;6.20;;;5.07;;
10641;SDS011;5369;49.586;8.646;2023-08-12T03:48:16;7.80;;;5.17;;
10641;SDS011;5369;49.586;8.646;2023-08-12T03:50:43;5.13;;;4.63;;
10641;SDS011;5369;49.586;8.646;2023-08-12T03:53:11;7.70;;;5.07;;
10641;SDS011;5369;49.586;8.646;2023-08-12T03:55:38;5.00;;;4.60;;
10641;SDS011;5369;49.586;8.646;2023-08-12T03:58:05;5.60;;;5.10;;
10641;SDS011;5369;49.586;8.646;2023-08-12T04:00:31;5.30;;;4.80;;
10641;SDS011;5369;49.586;8.646;2023-08-12T04:03:00;6.33;;;5.03;;
10641;SDS011;5369;49.586;8.646;2023-08-12T04:05:26;5.60;;;5.03;;
10641;SDS011;5369;49.586;8.646;2023-08-12T04:07:53;7.33;;;5.30;;
10641;SDS011;5369;49.586;8.646;2023-08-12T04:10:19;6.00;;;4.50;;
10641;SDS011;5369;49.586;8.646;2023-08-12T04:12:45;6.03;;;5.13;;
10641;SDS011;5369;49.586;8.646;2023-08-12T04:15:11;5.50;;;4.90;;
10641;SDS011;5369;49.586;8.646;2023-08-12T04:17:37;5.57;;;5.00;;
10641;SDS011;5369;49.586;8.646;2023-08-12T04:20:06;5.33;;;4.50;;
10641;SDS011;5369;49.586;8.646;2023-08-12T04:22:34;6.30;;;4.60;;
10641;SDS011;5369;49.586;8.646;2023-08-12T04:25:01;5.70;;;5.20;;
10641;SDS011;5369;49.586;8.646;2023-08-12T04:27:28;5.53;;;5.03;;
10641;SDS011;5369;49.586;8.646;2023-08-12T04:29:54;6.37;;;5.23;;
10641;SDS011;5369;49.586;8.646;2023-08-12T04:32:21;5.50;;;5.00;;
10641;SDS011;5369;49.586;8.646;2023-08-12T04:34:48;6.80;;;5.10;;
10641;SDS011;5369;49.586;8.646;2023-08-12T04:37:14;6.57;;;5.10;;
10641;SDS011;5369;49.586;8.646;2023-08-12T04:39:42;5.70;;;5.10;;
10641;SDS011;5369;49.586;8.646;2023-08-12T04:42:09;8.67;;;5.50;;
10641;SDS011;5369;49.586;8.646;2023-08-12T04:44:36;5.97;;;5.37;;
10641;SDS011;5369;49.586;8.646;2023-08-12T04:47:03;5.40;;;4.90;;
10641;SDS011;5369;49.586;8.646;2023-08-12T04:49:31;4.93;;;4.30;;
10641;SDS011;5369;49.586;8.646;2023-08-12T04:51:57;5.77;;;5.00;;
10641;SDS011;5369;49.586;8.646;2023-08-12T04:54:23;6.83;;;5.07;;
10641;SDS011;5369;49.586;8.646;2023-08-12T04:56:50;5.67;;;5.03;;
10641;SDS011;5369;49.586;8.646;2023-08-12T04:59:16;5.40;;;4.87;;
10641;SDS011;5369;49.586;8.646;2023-08-12T05:01:43;7.00;;;5.00;;
10641;SDS011;5369;49.586;8.646;2023-08-12T05:04:10;6.53;;;5.03;;
10641;SDS011;5369;49.586;8.646;2023-08-12T05:06:36;6.07;;;5.47;;
10641;SDS011;5369;49.586;8.646;2023-08-12T05:09:02;4.90;;;4.40;;
10641;SDS011;5369;49.586;8.646;2023-08-12T05:11:29;5.33;;;4.83;;
10641;SDS011;5369;49.586;8.646;2023-08-12T05:13:56;6.13;;;4.93;;
10641;SDS011;5369;49.586;8.646;2023-08-12T05:16:22;4.97;;;4.53;;
10641;SDS011;5369;49.586;8.646;2023-08-12T05:18:49;5.47;;;4.93;;
10641;SDS011;5369;49.586;8.646;2023-08-12T05:21:15;5.30;;;4.80;;
10641;SDS011;5369;49.586;8.646;2023-08-12T05:23:41;6.30;;;5.10;;
10641;SDS011;5369;49.586;8.646;2023-08-12T05:26:07;5.93;;;5.10;;
10641;SDS011;5369;49.586;8.646;2023-08-12T05:28:33;5.40;;;4.80;;
10641;SDS011;5369;49.586;8.646;2023-08-12T05:30:59;6.77;;;6.07;;
10641;SDS011;5369;49.586;8.646;2023-08-12T05:33:27;6.53;;;5.53;;
10641;SDS011;5369;49.586;8.646;2023-08-12T05:35:53;5.57;;;4.63;;
10641;SDS011;5369;49.586;8.646;2023-08-12T05:38:19;7.50;;;5.33;;
10641;SDS011;5369;49.586;8.646;2023-08-12T05:40:45;5.90;;;4.90;;
10641;SDS011;5369;49.586;8.646;2023-08-12T05:43:11;6.80;;;5.83;;
10641;SDS011;5369;49.586;8.646;2023-08-12T05:45:37;6.20;;;5.60;;
10641;SDS011;5369;49.586;8.646;2023-08-12T05:48:04;6.70;;;6.00;;
10641;SDS011;5369;49.586;8.646;2023-08-12T05:50:31;6.50;;;5.67;;
10641;SDS011;5369;49.586;8.646;2023-08-12T05:52:57;7.23;;;5.80;;
10641;SDS011;5369;49.586;8.646;2023-08-12T05:55:23;6.73;;;5.63;;
10641;SDS011;5369;49.586;8.646;2023-08-12T05:57:49;8.83;;;5.90;;
10641;SDS011;5369;49.586;8.646;2023-08-12T06:00:15;7.77;;;5.70;;
10641;SDS011;5369;49.586;8.646;2023-08-12T06:02:41;5.73;;;5.23;;
10641;SDS011;5369;49.586;8.646;2023-08-12T06:05:08;5.97;;;5.37;;
10641;SDS011;5369;49.586;8.646;2023-08-12T06:07:34;5.90;;;5.27;;
10641;SDS011;5369;49.586;8.646;2023-08-12T06:10:01;5.80;;;5.20;;
10641;SDS011;5369;49.586;8.646;2023-08-12T06:12:27;6.17;;;5.57;;
10641;SDS011;5369;49.586;8.646;2023-08-12T06:14:53;7.10;;;6.00;;
10641;SDS011;5369;49.586;8.646;2023-08-12T06:17:19;6.63;;;6.03;;
10641;SDS011;5369;49.586;8.646;2023-08-12T06:19:45;6.37;;;5.77;;
10641;SDS011;5369;49.586;8.646;2023-08-12T06:22:11;8.67;;;6.10;;
10641;SDS011;5369;49.586;8.646;2023-08-12T06:24:37;6.80;;;6.20;;
10641;SDS011;5369;49.586;8.646;2023-08-12T06:27:03;6.30;;;5.70;;
10641;SDS011;5369;49.586;8.646;2023-08-12T06:29:30;7.83;;;5.60;;
10641;SDS011;5369;49.586;8.646;2023-08-12T06:31:56;6.50;;;5.27;;
10641;SDS011;5369;49.586;8.646;2023-08-12T06:34:22;6.47;;;5.63;;
10641;SDS011;5369;49.586;8.646;2023-08-12T06:36:48;6.47;;;5.50;;
10641;SDS011;5369;49.586;8.646;2023-08-12T06:39:14;8.43;;;5.40;;
10641;SDS011;5369;49.586;8.646;2023-08-12T06:41:40;6.97;;;5.63;;
10641;SDS011;5369;49.586;8.646;2023-08-12T06:44:06;6.10;;;5.60;;
10641;SDS011;5369;49.586;8.646;2023-08-12T06:46:32;5.90;;;5.30;;
10641;SDS011;5369;49.586;8.646;2023-08-12T06:48:58;8.63;;;5.27;;
10641;SDS011;5369;49.586;8.646;2023-08-12T06:51:25;5.03;;;4.53;;
10641;SDS011;5369;49.586;8.646;2023-08-12T06:53:51;7.90;;;5.20;;
10641;SDS011;5369;49.586;8.646;2023-08-12T06:56:17;5.30;;;4.80;;
10641;SDS011;5369;49.586;8.646;2023-08-12T06:58:43;5.60;;;4.70;;
10641;SDS011;5369;49.586;8.646;2023-08-12T07:01:09;5.80;;;4.90;;
10641;SDS011;5369;49.586;8.646;2023-08-12T07:03:35;10.67;;;5.97;;
10641;SDS011;5369;49.586;8.646;2023-08-12T07:06:01;6.83;;;5.10;;
10641;SDS011;5369;49.586;8.646;2023-08-12T07:08:27;5.60;;;5.10;;
10641;SDS011;5369;49.586;8.646;2023-08-12T07:10:54;6.57;;;5.20;;
10641;SDS011;5369;49.586;8.646;2023-08-12T07:13:20;5.57;;;5.07;;
10641;SDS011;5369;49.586;8.646;2023-08-12T07:15:46;6.00;;;5.40;;
10641;SDS011;5369;49.586;8.646;2023-08-12T07:18:12;6.67;;;5.43;;
10641;SDS011;5369;49.586;8.646;2023-08-12T07:20:38;6.37;;;5.73;;
10641;SDS011;5369;49.586;8.646;2023-08-12T07:23:04;5.63;;;5.13;;
10641;SDS011;5369;49.586;8.646;2023-08-12T07:25:30;5.90;;;5.07;;
10641;SDS011;5369;49.586;8.646;2023-08-12T07:27:57;6.17;;;5.47;;
10641;SDS011;5369;49.586;8.646;2023-08-12T07:30:23;6.60;;;5.30;;
10641;SDS011;5369;49.586;8.646;2023-08-12T07:32:49;5.87;;;5.33;;
10641;SDS011;5369;49.586;8.646;2023-08-12T07:35:16;10.33;;;5.53;;
10641;SDS011;5369;49.586;8.646;2023-08-12T07:37:42;6.53;;;5.20;;
10641;SDS011;5369;49.586;8.646;2023-08-12T07:40:08;6.80;;;5.83;;
10641;SDS011;5369;49.586;8.646;2023-08-12T07:42:34;6.53;;;5.87;;
10641;SDS011;5369;49.586;8.646;2023-08-12T07:45:00;8.47;;;5.30;;
10641;SDS011;5369;49.586;8.646;2023-08-12T07:47:27;6.33;;;5.70;;
10641;SDS011;5369;49.586;8.646;2023-08-12T07:49:53;7.03;;;5.93;;
10641;SDS011;5369;49.586;8.646;2023-08-12T07:52:19;7.97;;;5.77;;
10641;SDS011;5369;49.586;8.646;2023-08-12T07:54:46;7.07;;;6.37;;
10641;SDS011;5369;49.586;8.646;2023-08-12T07:57:12;10.40;;;6.70;;
10641;SDS011;5369;49.586;8.646;2023-08-12T07:59:38;7.97;;;6.53;;
10641;SDS011;5369;49.586;8.646;2023-08-12T08:02:04;7.03;;;6.43;;
10641;SDS011;5369;49.586;8.646;2023-08-12T08:04:30;7.30;;;6.50;;
10641;SDS011;5369;49.586;8.646;2023-08-12T08:06:57;6.17;;;5.57;;
10641;SDS011;5369;49.586;8.646;2023-08-12T08:09:23;9.00;;;6.30;;
10641;SDS011;5369;49.586;8.646;2023-08-12T08:11:49;8.50;;;6.60;;
10641;SDS011;5369;49.586;8.646;2023-08-12T08:14:15;8.43;;;6.67;;
10641;SDS011;5369;49.586;8.646;2023-08-12T08:16:42;7.00;;;6.23;;
10641;SDS011;5369;49.586;8.646;2023-08-12T08:19:08;6.53;;;5.93;;
10641;SDS011;5369;49.586;8.646;2023-08-12T08:21:35;7.33;;;6.63;;
10641;SDS011;5369;49.586;8.646;2023-08-12T08:24:01;6.47;;;5.80;;
10641;SDS011;5369;49.586;8.646;2023-08-12T08:26:27;6.30;;;5.70;;
10641;SDS011;5369;49.586;8.646;2023-08-12T08:28:53;6.93;;;6.03;;
10641;SDS011;5369;49.586;8.646;2023-08-12T08:31:20;7.00;;;6.10;;
10641;SDS011;5369;49.586;8.646;2023-08-12T08:33:46;5.70;;;5.20;;
10641;SDS011;5369;49.586;8.646;2023-08-12T08:36:12;6.87;;;6.17;;
10641;SDS011;5369;49.586;8.646;2023-08-12T08:38:38;7.67;;;5.90;;
10641;SDS011;5369;49.586;8.646;2023-08-12T08:41:05;6.57;;;5.83;;
10641;SDS011;5369;49.586;8.646;2023-08-12T08:43:31;6.87;;;6.23;;
10641;SDS011;5369;49.586;8.646;2023-08-12T08:45:58;7.77;;;6.67;;
10641;SDS011;5369;49.586;8.646;2023-08-12T08:48:25;7.13;;;6.37;;
10641;SDS011;5369;49.586;8.646;2023-08-12T08:50:51;8.00;;;6.60;;
10641;SDS011;5369;49.586;8.646;2023-08-12T08:53:19;7.40;;;6.63;;
10641;SDS011;5369;49.586;8.646;2023-08-12T08:55:45;8.00;;;7.20;;
10641;SDS011;5369;49.586;8.646;2023-08-12T08:58:12;7.60;;;6.80;;
10641;SDS011;5369;49.586;8.646;2023-08-12T09:00:38;6.83;;;6.20;;
10641;SDS011;5369;49.586;8.646;2023-08-12T09:03:05;6.50;;;5.90;;
10641;SDS011;5369;49.586;8.646;2023-08-12T09:05:31;6.13;;;5.60;;
10641;SDS011;5369;49.586;8.646;2023-08-12T09:07:58;6.23;;;5.70;;
10641;SDS011;5369;49.586;8.646;2023-08-12T09:10:26;6.70;;;6.10;;
10641;SDS011;5369;49.586;8.646;2023-08-12T09:12:54;6.57;;;5.50;;
10641;SDS011;5369;49.586;8.646;2023-08-12T09:15:20;7.83;;;6.47;;
10641;SDS011;5369;49.586;8.646;2023-08-12T09:17:47;6.70;;;6.00;;
10641;SDS011;5369;49.586;8.646;2023-08-12T09:20:13;7.17;;;6.50;;
10641;SDS011;5369;49.586;8.646;2023-08-12T09:22:40;6.70;;;6.00;;
10641;SDS011;5369;49.586;8.646;2023-08-12T09:25:06;6.03;;;5.13;;
10641;SDS011;5369;49.586;8.646;2023-08-12T09:27:34;6.47;;;5.87;;
10641;SDS011;5369;49.586;8.646;2023-08-12T09:30:02;6.17;;;5.57;;
10641;SDS011;5369;49.586;8.646;2023-08-12T09:32:29;6.00;;;5.27;;
10641;SDS011;5369;49.586;8.646;2023-08-12T09:34:55;5.60;;;5.00;;
10641;SDS011;5369;49.586;8.646;2023-08-12T09:37:22;7.13;;;5.30;;
10641;SDS011;5369;49.586;8.646;2023-08-12T09:39:49;6.30;;;5.70;;
10641;SDS011;5369;49.586;8.646;2023-08-12T09:42:16;5.63;;;5.00;;
10641;SDS011;5369;49.586;8.646;2023-08-12T09:44:43;9.00;;;5.43;;
10641;SDS011;5369;49.586;8.646;2023-08-12T09:47:09;7.97;;;6.00;;
10641;SDS011;5369;49.586;8.646;2023-08-12T09:49:36;6.50;;;5.90;;
10641;SDS011;5369;49.586;8.646;2023-08-12T09:52:03;6.37;;;5.73;;
10641;SDS011;5369;49.586;8.646;2023-08-12T09:54:33;6.50;;;5.43;;
10641;SDS011;5369;49.586;8.646;2023-08-12T09:57:00;6.07;;;5.50;;
10641;SDS011;5369;49.586;8.646;2023-08-12T09:59:30;5.90;;;5.30;;
10641;SDS011;5369;49.586;8.646;2023-08-12T10:01:57;6.17;;;5.57;;
10641;SDS011;5369;49.586;8.646;2023-08-12T10:04:26;5.93;;;5.43;;
10641;SDS011;5369;49.586;8.646;2023-08-12T10:06:53;7.17;;;5.77;;
10641;SDS011;5369;49.586;8.646;2023-08-12T10:09:19;6.70;;;5.97;;
10641;SDS011;5369;49.586;8.646;2023-08-12T10:11:46;7.43;;;5.13;;
10641;SDS011;5369;49.586;8.646;2023-08-12T10:14:13;6.33;;;4.70;;
10641;SDS011;5369;49.586;8.646;2023-08-12T10:16:41;6.87;;;5.67;;
10641;SDS011;5369;49.586;8.646;2023-08-12T10:19:11;6.70;;;5.30;;
10641;SDS011;5369;49.586;8.646;2023-08-12T10:21:38;6.20;;;5.27;;
10641;SDS011;5369;49.586;8.646;2023-08-12T10:24:07;9.50;;;6.20;;
10641;SDS011;5369;49.586;8.646;2023-08-12T10:26:37;9.53;;;5.30;;
10641;SDS011;5369;49.586;8.646;2023-08-12T10:29:04;6.57;;;5.60;;
10641;SDS011;5369;49.586;8.646;2023-08-12T10:31:31;6.00;;;5.40;;
10641;SDS011;5369;49.586;8.646;2023-08-12T10:33:58;6.77;;;5.50;;
10641;SDS011;5369;49.586;8.646;2023-08-12T10:36:25;7.03;;;6.33;;
10641;SDS011;5369;49.586;8.646;2023-08-12T10:38:52;8.23;;;5.57;;
10641;SDS011;5369;49.586;8.646;2023-08-12T10:41:22;6.93;;;5.43;;
10641;SDS011;5369;49.586;8.646;2023-08-12T10:43:52;5.87;;;5.10;;
10641;SDS011;5369;49.586;8.646;2023-08-12T10:46:23;6.10;;;5.47;;
10641;SDS011;5369;49.586;8.646;2023-08-12T10:48:59;6.27;;;5.67;;
10641;SDS011;5369;49.586;8.646;2023-08-12T10:51:44;9.13;;;5.30;;
10641;SDS011;5369;49.586;8.646;2023-08-12T10:54:15;8.90;;;5.30;;
10641;SDS011;5369;49.586;8.646;2023-08-12T11:02:21;5.70;;;4.97;;
10641;SDS011;5369;49.586;8.646;2023-08-12T11:04:48;6.60;;;5.23;;
10641;SDS011;5369;49.586;8.646;2023-08-12T11:07:18;8.67;;;6.40;;
10641;SDS011;5369;49.586;8.646;2023-08-12T11:09:45;6.27;;;5.33;;
10641;SDS011;5369;49.586;8.646;2023-08-12T11:12:16;6.50;;;5.63;;
10641;SDS011;5369;49.586;8.646;2023-08-12T11:14:46;7.93;;;5.17;;
10641;SDS011;5369;49.586;8.646;2023-08-12T11:17:14;5.77;;;4.60;;
10641;SDS011;5369;49.586;8.646;2023-08-12T11:19:40;5.07;;;4.37;;
10641;SDS011;5369;49.586;8.646;2023-08-12T11:22:07;6.23;;;4.67;;
10641;SDS011;5369;49.586;8.646;2023-08-12T11:24:33;6.10;;;5.47;;
10641;SDS011;5369;49.586;8.646;2023-08-12T11:27:01;6.57;;;5.20;;
10641;SDS011;5369;49.586;8.646;2023-08-12T11:29:27;5.93;;;4.73;;
10641;SDS011;5369;49.586;8.646;2023-08-12T11:31:54;6.40;;;5.77;;
10641;SDS011;5369;49.586;8.646;2023-08-12T11:34:20;27.07;;;7.43;;
10641;SDS011;5369;49.586;8.646;2023-08-12T11:36:46;27.83;;;6.43;;
10641;SDS011;5369;49.586;8.646;2023-08-12T11:39:13;40.27;;;3.83;;
10641;SDS011;5369;49.586;8.646;2023-08-12T11:41:39;5.97;;;1.80;;
10641;SDS011;5369;49.586;8.646;2023-08-12T11:44:05;15.97;;;2.30;;
10641;SDS011;5369;49.586;8.646;2023-08-12T11:46:34;16.87;;;2.60;;
10641;SDS011;5369;49.586;8.646;2023-08-12T11:49:00;3.63;;;1.90;;
10641;SDS011;5369;49.586;8.646;2023-08-12T11:51:26;3.47;;;1.50;;
10641;SDS011;5369;49.586;8.646;2023-08-12T11:53:53;3.17;;;1.80;;
10641;SDS011;5369;49.586;8.646;2023-08-12T11:56:19;3.20;;;1.90;;
10641;SDS011;5369;49.586;8.646;2023-08-12T11:58:48;2.57;;;1.80;;
10641;SDS011;5369;49.586;8.646;2023-08-12T12:01:15;4.93;;;1.70;;
10641;SDS011;5369;49.586;8.646;2023-08-12T12:03:41;2.40;;;1.80;;
10641;SDS011;5369;49.586;8.646;2023-08-12T12:06:08;4.13;;;1.70;;
10641;SDS011;5369;49.586;8.646;2023-08-12T12:08:34;2.63;;;1.40;;
10641;SDS011;5369;49.586;8.646;2023-08-12T12:11:06;2.70;;;1.20;;
10641;SDS011;5369;49.586;8.646;2023-08-12T12:13:32;1.60;;;1.10;;
10641;SDS011;5369;49.586;8.646;2023-08-12T12:15:58;1.93;;;1.20;;
10641;SDS011;5369;49.586;8.646;2023-08-12T12:18:25;2.50;;;1.10;;
10641;SDS011;5369;49.586;8.646;2023-08-12T12:20:55;1.37;;;1.03;;
10641;SDS011;5369;49.586;8.646;2023-08-12T12:23:21;1.17;;;1.07;;
10641;SDS011;5369;49.586;8.646;2023-08-12T12:25:47;1.10;;;1.00;;
10641;SDS011;5369;49.586;8.646;2023-08-12T12:28:14;1.50;;;1.17;;
10641;SDS011;5369;49.586;8.646;2023-08-12T12:30:40;1.40;;;1.30;;
10641;SDS011;5369;49.586;8.646;2023-08-12T12:33:06;2.07;;;1.20;;
10641;SDS011;5369;49.586;8.646;2023-08-12T12:35:32;1.30;;;1.20;;
10641;SDS011;5369;49.586;8.646;2023-08-12T12:37:58;1.40;;;1.30;;
10641;SDS011;5369;49.586;8.646;2023-08-12T12:40:24;1.50;;;1.40;;
10641;SDS011;5369;49.586;8.646;2023-08-12T12:42:51;1.70;;;1.23;;
10641;SDS011;5369;49.586;8.646;2023-08-12T12:45:17;1.80;;;1.40;;
10641;SDS011;5369;49.586;8.646;2023-08-12T12:47:43;2.43;;;1.50;;
10641;SDS011;5369;49.586;8.646;2023-08-12T12:50:09;1.73;;;1.20;;
10641;SDS011;5369;49.586;8.646;2023-08-12T12:52:35;1.20;;;1.10;;
10641;SDS011;5369;49.586;8.646;2023-08-12T12:55:01;2.47;;;1.27;;
10641;SDS011;5369;49.586;8.646;2023-08-12T12:57:29;1.87;;;1.50;;
10641;SDS011;5369;49.586;8.646;2023-08-12T12:59:55;1.63;;;1.50;;
10641;SDS011;5369;49.586;8.646;2023-08-12T13:02:21;3.17;;;1.90;;
10641;SDS011;5369;49.586;8.646;2023-08-12T13:04:47;4.37;;;1.90;;
10641;SDS011;5369;49.586;8.646;2023-08-12T13:07:15;1.83;;;1.50;;
10641;SDS011;5369;49.586;8.646;2023-08-12T13:09:41;1.73;;;1.30;;
10641;SDS011;5369;49.586;8.646;2023-08-12T13:12:07;1.93;;;1.20;;
10641;SDS011;5369;49.586;8.646;2023-08-12T13:14:33;4.07;;;1.30;;
10641;SDS011;5369;49.586;8.646;2023-08-12T13:17:00;2.93;;;1.20;;
10641;SDS011;5369;49.586;8.646;2023-08-12T13:19:26;1.07;;;0.97;;
10641;SDS011;5369;49.586;8.646;2023-08-12T13:21:52;1.10;;;1.00;;
10641;SDS011;5369;49.586;8.646;2023-08-12T13:24:18;1.13;;;1.00;;
10641;SDS011;5369;49.586;8.646;2023-08-12T13:26:45;4.30;;;1.10;;
10641;SDS011;5369;49.586;8.646;2023-08-12T13:29:11;1.10;;;1.00;;
10641;SDS011;5369;49.586;8.646;2023-08-12T13:31:38;1.93;;;1.10;;
10641;SDS011;5369;49.586;8.646;2023-08-12T13:34:05;0.90;;;0.90;;
10641;SDS011;5369;49.586;8.646;2023-08-12T13:36:31;1.30;;;1.00;;
10641;SDS011;5369;49.586;8.646;2023-08-12T13:38:57;1.00;;;1.00;;
10641;SDS011;5369;49.586;8.646;2023-08-12T13:41:23;1.10;;;1.00;;
10641;SDS011;5369;49.586;8.646;2023-08-12T13:43:50;1.43;;;1.20;;
10641;SDS011;5369;49.586;8.646;2023-08-12T13:46:17;1.33;;;1.10;;
10641;SDS011;5369;49.586;8.646;2023-08-12T13:48:45;1.47;;;1.23;;
10641;SDS011;5369;49.586;8.646;2023-08-12T13:51:12;1.83;;;1.30;;
10641;SDS011;5369;49.586;8.646;2023-08-12T13:53:39;1.33;;;1.20;;
10641;SDS011;5369;49.586;8.646;2023-08-12T13:56:05;1.33;;;1.10;;
10641;SDS011;5369;49.586;8.646;2023-08-12T13:58:32;1.60;;;1.30;;
10641;SDS011;5369;49.586;8.646;2023-08-12T14:00:59;1.40;;;1.30;;
10641;SDS011;5369;49.586;8.646;2023-08-12T14:03:25;1.93;;;1.60;;
10641;SDS011;5369;49.586;8.646;2023-08-12T14:05:51;2.50;;;1.30;;
10641;SDS011;5369;49.586;8.646;2023-08-12T14:08:18;1.57;;;1.47;;
10641;SDS011;5369;49.586;8.646;2023-08-12T14:10:45;2.33;;;1.43;;
10641;SDS011;5369;49.586;8.646;2023-08-12T14:13:12;2.27;;;1.40;;
10641;SDS011;5369;49.586;8.646;2023-08-12T14:15:38;2.33;;;1.33;;
10641;SDS011;5369;49.586;8.646;2023-08-12T14:18:07;3.40;;;1.67;;
10641;SDS011;5369;49.586;8.646;2023-08-12T14:20:33;1.63;;;1.53;;
10641;SDS011;5369;49.586;8.646;2023-08-12T14:23:00;2.10;;;1.80;;
10641;SDS011;5369;49.586;8.646;2023-08-12T14:25:29;2.57;;;1.80;;
10641;SDS011;5369;49.586;8.646;2023-08-12T14:28:02;2.00;;;1.87;;
10641;SDS011;5369;49.586;8.646;2023-08-12T14:30:28;2.20;;;1.70;;
10641;SDS011;5369;49.586;8.646;2023-08-12T14:32:55;3.57;;;1.90;;
10641;SDS011;5369;49.586;8.646;2023-08-12T14:35:21;2.40;;;2.20;;
10641;SDS011;5369;49.586;8.646;2023-08-12T14:37:47;3.17;;;2.30;;
10641;SDS011;5369;49.586;8.646;2023-08-12T14:40:14;2.20;;;2.00;;
10641;SDS011;5369;49.586;8.646;2023-08-12T14:42:41;3.03;;;2.30;;
10641;SDS011;5369;49.586;8.646;2023-08-12T14:45:07;2.50;;;2.30;;
10641;SDS011;5369;49.586;8.646;2023-08-12T14:47:34;2.77;;;2.57;;
10641;SDS011;5369;49.586;8.646;2023-08-12T14:50:00;3.00;;;2.70;;
10641;SDS011;5369;49.586;8.646;2023-08-12T14:52:27;3.13;;;2.83;;
10641;SDS011;5369;49.586;8.646;2023-08-12T14:54:53;4.47;;;3.00;;
10641;SDS011;5369;49.586;8.646;2023-08-12T14:57:19;3.67;;;2.77;;
10641;SDS011;5369;49.586;8.646;2023-08-12T14:59:46;3.60;;;3.30;;
10641;SDS011;5369;49.586;8.646;2023-08-12T15:02:16;3.53;;;3.20;;
10641;SDS011;5369;49.586;8.646;2023-08-12T15:04:43;3.87;;;3.30;;